Time;durP1;ratioP1;P1;durP2;ratioP2;P2;SDS_P1;SDS_P2;PMS_P1;PMS_P2;Temp;Humidity;BMP_temperature;BMP_pressure;BME280_temperature;BME280_humidity;BME280_pressure;Samples;Min_cycle;Max_cycle;Signal;HPM_P1;HPM_P2
2021/03/10 00:01:00;;;;;;;19.98;17.90;;;7.70;99.90;;;;;;2063857;28;20026;-79
2021/03/10 00:02:00;;;;;;;17.58;15.73;;;7.70;99.90;;;;;;2056842;28;20023;-80
2021/03/10 00:03:01;;;;;;;18.23;16.25;;;7.70;99.90;;;;;;2056287;28;20038;-80
2021/03/10 00:04:02;;;;;;;18.33;16.30;;;7.70;99.90;;;;;;2064704;28;20029;-79
2021/03/10 00:05:04;;;;;;;14.52;13.02;;;7.70;99.90;;;;;;2064565;28;20120;-79
2021/03/10 00:06:05;;;;;;;18.33;16.13;;;7.70;99.90;;;;;;2064613;28;20093;-80
2021/03/10 00:07:06;;;;;;;20.95;18.75;;;7.70;99.90;;;;;;2064269;28;20085;-79
2021/03/10 00:08:06;;;;;;;21.80;18.60;;;7.70;99.90;;;;;;2061183;28;20027;-78
2021/03/10 00:09:07;;;;;;;22.05;19.00;;;7.60;99.90;;;;;;2060532;28;20030;-78
2021/03/10 00:10:09;;;;;;;21.50;19.10;;;7.60;99.90;;;;;;2061355;28;20525;-78
2021/03/10 00:11:10;;;;;;;19.75;17.60;;;7.60;99.90;;;;;;2060156;28;20027;-78
2021/03/10 00:12:11;;;;;;;22.10;18.33;;;7.70;99.90;;;;;;2060332;28;20033;-78
2021/03/10 00:13:11;;;;;;;18.73;15.95;;;7.60;99.90;;;;;;2069691;28;20034;-79
2021/03/10 00:14:12;;;;;;;16.92;15.15;;;7.60;99.90;;;;;;2068324;28;20030;-78
2021/03/10 00:15:13;;;;;;;16.30;14.57;;;7.60;99.90;;;;;;2068690;28;20073;-79
2021/03/10 00:16:14;;;;;;;19.58;17.20;;;7.60;99.90;;;;;;2068589;28;20165;-79
2021/03/10 00:17:15;;;;;;;16.23;14.52;;;7.60;99.90;;;;;;2068259;28;20109;-78
2021/03/10 00:18:15;;;;;;;17.05;15.23;;;7.60;99.90;;;;;;2069014;28;20036;-78
2021/03/10 00:19:16;;;;;;;14.48;12.98;;;7.60;99.90;;;;;;2069307;28;20038;-78
2021/03/10 00:20:18;;;;;;;15.95;14.32;;;7.60;99.90;;;;;;2069171;28;20032;-80
2021/03/10 00:21:19;;;;;;;16.40;14.70;;;7.60;99.90;;;;;;2061424;28;20027;-78
2021/03/10 00:22:20;;;;;;;15.77;12.93;;;7.60;99.90;;;;;;2060055;28;20050;-78
2021/03/10 00:23:20;;;;;;;16.98;14.50;;;7.60;99.90;;;;;;2069778;28;20031;-79
2021/03/10 00:24:21;;;;;;;18.75;16.85;;;7.60;99.90;;;;;;2068019;28;20022;-78
2021/03/10 00:25:22;;;;;;;15.98;14.10;;;7.60;99.90;;;;;;2060298;28;20045;-80
2021/03/10 00:26:22;;;;;;;16.40;14.70;;;7.60;99.90;;;;;;2061425;28;20114;-79
2021/03/10 00:27:24;;;;;;;12.93;11.68;;;7.60;99.90;;;;;;2068046;28;20057;-79
2021/03/10 00:28:24;;;;;;;19.38;15.50;;;7.60;99.90;;;;;;2062026;28;20504;-78
2021/03/10 00:29:25;;;;;;;15.57;13.93;;;7.60;99.90;;;;;;2068653;28;20031;-77
2021/03/10 00:30:26;;;;;;;17.10;15.38;;;7.60;99.90;;;;;;2068681;28;20042;-80
2021/03/10 00:31:26;;;;;;;16.85;15.18;;;7.50;99.90;;;;;;2061584;28;20182;-78
2021/03/10 00:32:28;;;;;;;18.52;16.63;;;7.60;99.90;;;;;;2068418;28;20031;-78
2021/03/10 00:33:29;;;;;;;17.73;15.65;;;7.60;99.90;;;;;;2069224;28;20026;-79
2021/03/10 00:34:30;;;;;;;16.75;15.00;;;7.50;99.90;;;;;;2069694;28;20505;-79
2021/03/10 00:35:30;;;;;;;16.33;14.55;;;7.60;99.90;;;;;;2068240;28;20036;-79
2021/03/10 00:36:31;;;;;;;20.83;16.42;;;7.60;99.90;;;;;;2062117;28;20050;-78
2021/03/10 00:37:32;;;;;;;20.58;18.35;;;7.60;99.90;;;;;;2068349;28;20038;-79
2021/03/10 00:38:33;;;;;;;21.55;19.25;;;7.50;99.90;;;;;;2069818;28;20069;-78
2021/03/10 00:39:33;;;;;;;21.15;18.15;;;7.60;99.90;;;;;;2069095;28;20394;-78
2021/03/10 00:40:34;;;;;;;25.17;19.70;;;7.60;99.90;;;;;;2060549;28;20501;-78
2021/03/10 00:41:35;;;;;;;20.95;18.75;;;7.60;99.90;;;;;;2070120;28;20026;-79
2021/03/10 00:42:35;;;;;;;17.60;15.80;;;7.50;99.90;;;;;;2060250;28;20423;-79
2021/03/10 00:43:36;;;;;;;12.68;11.45;;;7.50;99.90;;;;;;2061692;28;20054;-79
2021/03/10 00:44:37;;;;;;;15.18;13.55;;;7.50;99.90;;;;;;2060658;28;20050;-78
2021/03/10 00:45:38;;;;;;;14.45;13.07;;;7.60;99.90;;;;;;2060500;28;20041;-79
2021/03/10 00:46:39;;;;;;;20.85;16.48;;;7.50;99.90;;;;;;2069588;28;20046;-79
2021/03/10 00:47:39;;;;;;;13.55;12.18;;;7.50;99.90;;;;;;2060707;28;20370;-79
2021/03/10 00:48:40;;;;;;;16.30;14.60;;;7.50;99.90;;;;;;2060752;28;20042;-78
2021/03/10 00:49:43;;;;;;;14.45;12.55;;;7.50;99.90;;;;;;2061285;28;20031;-78
2021/03/10 00:50:44;;;;;;;17.67;15.15;;;7.50;99.90;;;;;;2060575;28;20206;-79
2021/03/10 00:51:44;;;;;;;19.05;16.45;;;7.50;99.90;;;;;;2061856;28;20054;-79
2021/03/10 00:52:45;;;;;;;18.25;15.85;;;7.50;99.90;;;;;;2060745;28;20486;-79
2021/03/10 00:53:46;;;;;;;13.48;12.18;;;7.50;99.90;;;;;;2060681;28;20030;-79
2021/03/10 00:54:47;;;;;;;18.00;16.08;;;7.50;99.90;;;;;;2066151;28;20076;-80
2021/03/10 00:55:47;;;;;;;19.08;16.90;;;7.50;99.90;;;;;;2064267;28;20042;-80
2021/03/10 00:56:49;;;;;;;18.48;16.67;;;7.50;99.90;;;;;;2056150;28;20054;-80
2021/03/10 00:57:49;;;;;;;17.17;14.60;;;7.50;99.90;;;;;;2055737;28;20023;-80
2021/03/10 00:58:50;;;;;;;16.45;14.43;;;7.50;99.90;;;;;;2064205;28;20038;-80
2021/03/10 00:59:51;;;;;;;19.55;17.27;;;7.50;99.90;;;;;;2064956;28;20026;-80
2021/03/10 01:00:51;;;;;;;19.40;16.05;;;7.50;99.90;;;;;;2056120;28;20082;-79
2021/03/10 01:01:52;;;;;;;15.05;13.32;;;7.50;99.90;;;;;;2063662;28;20014;-80
2021/03/10 01:02:53;;;;;;;18.08;16.20;;;7.50;99.90;;;;;;2056283;28;20023;-79
2021/03/10 01:03:54;;;;;;;18.92;16.92;;;7.50;99.90;;;;;;2059643;28;20030;-80
2021/03/10 01:04:54;;;;;;;15.55;13.95;;;7.50;99.90;;;;;;2056265;28;20030;-79
2021/03/10 01:05:55;;;;;;;17.55;15.75;;;7.40;99.90;;;;;;2056561;28;20026;-80
2021/03/10 01:06:56;;;;;;;19.50;15.45;;;7.50;99.90;;;;;;2064101;28;20341;-80
2021/03/10 01:07:56;;;;;;;19.20;17.30;;;7.40;99.90;;;;;;2055955;28;20122;-80
2021/03/10 01:08:57;;;;;;;18.70;16.77;;;7.40;99.90;;;;;;2055568;28;20034;-79
2021/03/10 01:09:57;;;;;;;15.60;13.88;;;7.40;99.90;;;;;;2055917;28;20074;-80
2021/03/10 01:10:58;;;;;;;17.30;14.05;;;7.40;99.90;;;;;;2064455;28;20022;-79
2021/03/10 01:11:59;;;;;;;17.83;15.43;;;7.40;99.90;;;;;;2065008;28;20098;-80
2021/03/10 01:12:59;;;;;;;19.98;17.90;;;7.40;99.90;;;;;;2056243;28;20062;-80
2021/03/10 01:14:01;;;;;;;19.50;17.50;;;7.40;99.90;;;;;;2063854;28;20084;-80
2021/03/10 01:15:08;;;;;;;18.90;16.63;;;7.40;99.90;;;;;;2056660;28;20030;-79
2021/03/10 01:16:08;;;;;;;18.15;16.23;;;7.40;99.90;;;;;;2056980;28;20030;-79
2021/03/10 01:17:09;;;;;;;19.20;17.20;;;7.30;99.90;;;;;;2063928;28;20089;-80
2021/03/10 01:18:10;;;;;;;14.18;12.75;;;7.40;99.90;;;;;;2064346;28;20449;-79
2021/03/10 01:19:10;;;;;;;16.52;14.40;;;7.40;99.90;;;;;;2050680;28;20079;-79
2021/03/10 01:20:14;;;;;;;17.45;15.50;;;7.30;99.90;;;;;;2056666;28;20421;-80
2021/03/10 01:21:15;;;;;;;16.20;14.52;;;7.30;99.90;;;;;;2056443;28;20027;-80
2021/03/10 01:22:16;;;;;;;20.30;17.15;;;7.30;99.90;;;;;;2056945;28;20575;-80
2021/03/10 01:23:16;;;;;;;19.05;16.80;;;7.30;99.90;;;;;;2056937;28;20039;-79
2021/03/10 01:24:17;;;;;;;18.17;15.48;;;7.30;99.90;;;;;;2060194;28;20429;-80
2021/03/10 01:25:19;;;;;;;19.17;15.98;;;7.30;99.90;;;;;;2056932;28;20126;-80
2021/03/10 01:26:20;;;;;;;16.98;15.27;;;7.30;99.90;;;;;;2056240;28;20067;-80
2021/03/10 01:27:20;;;;;;;19.73;17.45;;;7.20;99.90;;;;;;2055673;28;20030;-80
2021/03/10 01:28:21;;;;;;;23.15;18.17;;;7.20;99.90;;;;;;2066618;28;20436;-80
2021/03/10 01:29:22;;;;;;;23.17;18.98;;;7.20;99.90;;;;;;2068705;28;20023;-81
2021/03/10 01:30:23;;;;;;;18.63;16.42;;;7.20;99.90;;;;;;2069061;28;20018;-81
2021/03/10 01:31:24;;;;;;;16.45;14.77;;;7.20;99.90;;;;;;2068501;28;20029;-82
2021/03/10 01:32:24;;;;;;;19.92;17.92;;;7.20;99.90;;;;;;2060194;28;20030;-82
2021/03/10 01:33:25;;;;;;;23.23;19.67;;;7.20;99.90;;;;;;2069623;28;20417;-79
2021/03/10 01:34:26;;;;;;;20.35;18.15;;;7.20;99.90;;;;;;2060160;28;20098;-80
2021/03/10 01:35:27;;;;;;;19.50;16.38;;;7.10;99.90;;;;;;2060170;28;20038;-82
2021/03/10 01:36:28;;;;;;;17.65;15.75;;;7.10;99.90;;;;;;2052382;29;20027;-80
2021/03/10 01:37:28;;;;;;;18.80;16.83;;;7.10;99.90;;;;;;2059009;28;20031;-83
2021/03/10 01:38:29;;;;;;;17.23;15.05;;;7.10;99.90;;;;;;2068453;28;20019;-81
2021/03/10 01:39:30;;;;;;;15.95;14.25;;;7.10;99.90;;;;;;2068740;28;20056;-78
2021/03/10 01:40:31;;;;;;;17.23;15.52;;;7.10;99.90;;;;;;2060440;28;20349;-81
2021/03/10 01:41:32;;;;;;;19.15;17.08;;;7.10;99.90;;;;;;2060662;28;20023;-80
2021/03/10 01:42:33;;;;;;;22.15;19.67;;;7.10;99.90;;;;;;2060289;28;20077;-81
2021/03/10 01:43:33;;;;;;;17.00;14.43;;;7.10;99.90;;;;;;2060782;28;20046;-81
2021/03/10 01:44:34;;;;;;;17.15;15.23;;;7.00;99.90;;;;;;2060687;28;20060;-82
2021/03/10 01:45:36;;;;;;;18.50;15.77;;;7.10;99.90;;;;;;2060356;28;20027;-80
2021/03/10 01:46:40;;;;;;;18.48;16.50;;;7.10;99.90;;;;;;2056996;28;20078;-82
2021/03/10 01:47:43;;;;;;;19.23;17.02;;;7.00;99.90;;;;;;2067832;28;20026;-79
2021/03/10 01:48:44;;;;;;;17.77;15.88;;;7.00;99.90;;;;;;2054371;28;20083;-81
2021/03/10 01:49:44;;;;;;;20.10;17.80;;;7.00;99.90;;;;;;2059205;28;20133;-79
2021/03/10 01:50:45;;;;;;;22.83;20.52;;;7.00;99.90;;;;;;2052259;29;20041;-81
2021/03/10 01:51:46;;;;;;;18.05;16.13;;;7.00;99.90;;;;;;2058275;28;20042;-83
2021/03/10 01:52:47;;;;;;;22.58;18.73;;;7.00;99.90;;;;;;2065185;28;20030;-82
2021/03/10 01:53:48;;;;;;;20.98;18.55;;;7.00;99.90;;;;;;2061010;28;20443;-82
2021/03/10 01:54:49;;;;;;;30.13;25.02;;;7.00;99.90;;;;;;2068303;28;20038;-81
2021/03/10 01:55:53;;;;;;;33.67;27.05;;;7.00;99.90;;;;;;2060571;28;20046;-82
2021/03/10 01:56:54;;;;;;;35.28;27.98;;;7.00;99.90;;;;;;2059607;28;20050;-83
2021/03/10 01:57:55;;;;;;;38.25;30.55;;;7.00;99.90;;;;;;2054479;28;20090;-81
2021/03/10 01:58:56;;;;;;;39.42;29.83;;;7.00;99.90;;;;;;2052750;28;20047;-78
2021/03/10 01:59:57;;;;;;;38.33;29.00;;;7.00;99.90;;;;;;2055453;28;20081;-81
2021/03/10 02:00:58;;;;;;;41.13;30.95;;;7.00;99.90;;;;;;2055673;28;20023;-81
2021/03/10 02:01:58;;;;;;;40.50;30.23;;;7.00;99.90;;;;;;2062805;28;20109;-78
2021/03/10 02:02:59;;;;;;;41.17;29.50;;;7.00;99.90;;;;;;2066667;28;20026;-80
2021/03/10 02:04:04;;;;;;;42.65;29.98;;;7.00;99.90;;;;;;2052473;29;20062;-82
2021/03/10 02:05:06;;;;;;;41.13;29.58;;;7.00;99.90;;;;;;2054263;28;20437;-80
2021/03/10 02:06:10;;;;;;;44.42;32.20;;;7.00;99.90;;;;;;2055492;28;20039;-80
2021/03/10 02:07:45;;;;;;;41.28;31.58;;;7.00;99.90;;;;;;2063194;28;20169;-79
2021/03/10 02:08:54;;;;;;;48.10;32.83;;;7.00;99.90;;;;;;2051739;28;20547;-80
2021/03/10 02:10:03;;;;;;;45.05;32.33;;;7.00;99.90;;;;;;2054100;28;20039;-80
2021/03/10 02:11:25;;;;;;;47.15;33.22;;;7.00;99.90;;;;;;2058813;28;20109;-81
2021/03/10 02:12:57;;;;;;;44.38;32.25;;;6.90;99.90;;;;;;2063682;28;20034;-81
2021/03/10 02:14:03;;;;;;;44.25;32.45;;;6.90;99.90;;;;;;2063637;28;20030;-81
2021/03/10 02:15:24;;;;;;;48.50;33.88;;;6.90;99.90;;;;;;2048455;28;20049;-81
2021/03/10 02:16:50;;;;;;;48.75;34.08;;;6.90;99.90;;;;;;2062336;28;20553;-80
2021/03/10 02:18:01;;;;;;;47.55;33.30;;;6.90;99.90;;;;;;2069185;28;20026;-81
2021/03/10 02:19:23;;;;;;;;;;;6.90;99.90;;;;;;2063732;28;20102;-81
2021/03/10 02:20:32;;;;;;;48.60;33.05;;;6.80;99.90;;;;;;2055996;28;19968;-82
2021/03/10 02:21:48;;;;;;;48.97;33.00;;;6.90;99.90;;;;;;2056055;28;20109;-79
2021/03/10 02:23:12;;;;;;;48.80;34.72;;;6.90;99.90;;;;;;2068307;28;20033;-80
2021/03/10 02:24:50;;;;;;;51.13;34.25;;;6.90;99.90;;;;;;2060077;28;20027;-80
2021/03/10 02:25:56;;;;;;;46.75;32.80;;;6.90;99.90;;;;;;2061702;28;20037;-80
2021/03/10 02:27:33;;;;;;;45.92;33.47;;;6.90;99.90;;;;;;2061015;28;20023;-79
2021/03/10 02:28:37;;;;;;;50.05;33.90;;;6.80;99.90;;;;;;2066315;28;20504;-80
2021/03/10 02:29:39;;;;;;;48.63;34.47;;;6.90;99.90;;;;;;2053477;28;20027;-79
2021/03/10 02:30:41;;;;;;;52.83;35.45;;;6.90;99.90;;;;;;2054743;28;20703;-81
2021/03/10 02:31:47;;;;;;;56.75;37.00;;;6.90;99.90;;;;;;2055828;28;20110;-81
2021/03/10 02:32:57;;;;;;;52.58;36.50;;;6.90;99.90;;;;;;2062758;28;20439;-79
2021/03/10 02:34:01;;;;;;;54.20;35.20;;;6.90;99.90;;;;;;2063378;28;20046;-81
2021/03/10 02:35:04;;;;;;;51.17;35.72;;;6.90;99.90;;;;;;2063142;28;20022;-80
2021/03/10 02:36:09;;;;;;;52.33;36.58;;;6.90;99.90;;;;;;2055452;28;20023;-81
2021/03/10 02:37:11;;;;;;;43.00;29.88;;;7.00;99.90;;;;;;2055427;28;20019;-80
2021/03/10 02:38:17;;;;;;;42.42;29.08;;;7.00;99.90;;;;;;2054982;28;20056;-80
2021/03/10 02:39:19;;;;;;;47.53;32.97;;;7.00;99.90;;;;;;2062905;28;20117;-81
2021/03/10 02:40:22;;;;;;;49.90;34.38;;;7.00;99.90;;;;;;2063389;28;20498;-80
2021/03/10 02:41:23;;;;;;;50.50;35.42;;;7.00;99.90;;;;;;2062997;28;20023;-81
2021/03/10 02:42:25;;;;;;;54.67;35.95;;;7.00;99.90;;;;;;2061665;28;20037;-80
2021/03/10 02:43:27;;;;;;;53.25;35.47;;;7.00;99.90;;;;;;2054530;28;20022;-80
2021/03/10 02:44:29;;;;;;;46.78;31.13;;;7.00;99.90;;;;;;2055219;28;20019;-79
2021/03/10 02:45:30;;;;;;;51.03;35.10;;;7.00;99.90;;;;;;2060240;28;20034;-80
2021/03/10 02:46:32;;;;;;;57.58;35.55;;;7.00;99.90;;;;;;2055086;28;20025;-80
2021/03/10 02:47:34;;;;;;;51.85;35.85;;;7.00;99.90;;;;;;2058634;28;20545;-81
2021/03/10 02:48:35;;;;;;;57.92;37.35;;;7.00;99.90;;;;;;2058682;28;20022;-81
2021/03/10 02:49:37;;;;;;;49.00;34.15;;;7.00;99.90;;;;;;2063036;28;20089;-81
2021/03/10 02:50:39;;;;;;;51.03;34.85;;;7.00;99.90;;;;;;2055854;28;20031;-81
2021/03/10 02:51:43;;;;;;;46.60;32.72;;;7.00;99.90;;;;;;2063721;28;20022;-81
2021/03/10 02:52:45;;;;;;;39.22;27.75;;;7.00;99.90;;;;;;2050903;28;20074;-79
2021/03/10 02:53:48;;;;;;;41.30;26.10;;;7.00;99.90;;;;;;2055179;28;20489;-79
2021/03/10 02:54:50;;;;;;;49.22;34.75;;;7.00;99.90;;;;;;2055647;28;20023;-81
2021/03/10 02:55:51;;;;;;;48.50;35.10;;;7.00;99.90;;;;;;2055019;28;20027;-81
2021/03/10 02:56:53;;;;;;;58.42;37.42;;;7.00;99.90;;;;;;2062753;28;20049;-81
2021/03/10 02:57:54;;;;;;;53.80;36.60;;;7.00;99.90;;;;;;2057984;28;20022;-79
2021/03/10 02:58:56;;;;;;;54.20;34.50;;;7.00;99.90;;;;;;2059537;28;20034;-80
2021/03/10 02:59:59;;;;;;;53.53;35.45;;;7.00;99.90;;;;;;2059562;28;20027;-79
2021/03/10 03:01:00;;;;;;;49.65;33.22;;;7.00;99.90;;;;;;2069416;28;20508;-79
2021/03/10 03:02:01;;;;;;;51.38;33.53;;;7.00;99.90;;;;;;2061759;28;20022;-79
2021/03/10 03:03:02;;;;;;;54.60;34.83;;;7.00;99.90;;;;;;2061342;28;20413;-78
2021/03/10 03:04:03;;;;;;;51.22;35.15;;;7.00;99.90;;;;;;2068965;28;20034;-79
2021/03/10 03:05:06;;;;;;;52.75;33.58;;;7.00;99.90;;;;;;2068724;28;20046;-79
2021/03/10 03:06:06;;;;;;;49.15;32.83;;;7.00;99.90;;;;;;2061205;28;20035;-78
2021/03/10 03:07:07;;;;;;;47.13;33.45;;;7.00;99.90;;;;;;2069652;28;20057;-79
2021/03/10 03:08:08;;;;;;;47.28;32.35;;;7.00;99.90;;;;;;2069324;28;20046;-80
2021/03/10 03:09:09;;;;;;;49.65;33.72;;;7.00;99.90;;;;;;2062481;28;20041;-79
2021/03/10 03:10:18;;;;;;;46.85;33.78;;;7.00;99.90;;;;;;2062875;28;20038;-79
2021/03/10 03:11:19;;;;;;;49.13;34.35;;;7.00;99.90;;;;;;2071128;28;20104;-78
2021/03/10 03:12:20;;;;;;;50.45;35.00;;;7.00;99.90;;;;;;2062936;28;20030;-79
2021/03/10 03:13:22;;;;;;;45.20;32.67;;;6.90;99.90;;;;;;2062773;28;20027;-78
2021/03/10 03:14:23;;;;;;;45.53;31.05;;;7.00;99.90;;;;;;2050649;28;20079;-77
2021/03/10 03:15:24;;;;;;;50.05;30.90;;;7.00;99.90;;;;;;2049494;29;20032;-78
2021/03/10 03:16:29;;;;;;;52.55;32.92;;;7.00;99.90;;;;;;2056011;28;20043;-80
2021/03/10 03:17:31;;;;;;;47.55;32.60;;;7.00;99.90;;;;;;2056705;28;20031;-78
2021/03/10 03:18:32;;;;;;;48.80;31.58;;;7.00;99.90;;;;;;2049460;28;20063;-79
2021/03/10 03:19:32;;;;;;;51.50;33.88;;;7.00;99.90;;;;;;2054990;28;20524;-78
2021/03/10 03:20:33;;;;;;;45.72;32.10;;;7.00;99.90;;;;;;2065396;28;20034;-79
2021/03/10 03:21:34;;;;;;;49.00;32.85;;;7.00;99.90;;;;;;2065809;28;20046;-78
2021/03/10 03:22:44;;;;;;;47.75;32.13;;;7.00;99.90;;;;;;2056496;28;20026;-80
2021/03/10 03:23:45;;;;;;;48.08;31.45;;;7.00;99.90;;;;;;2065656;28;20069;-77
2021/03/10 03:24:49;;;;;;;49.33;33.92;;;7.00;99.90;;;;;;2054752;28;20050;-78
2021/03/10 03:25:51;;;;;;;44.65;32.63;;;7.00;99.90;;;;;;2050553;28;20027;-80
2021/03/10 03:26:53;;;;;;;46.08;32.00;;;6.90;99.90;;;;;;2054390;28;20033;-78
2021/03/10 03:28:03;;;;;;;44.60;30.80;;;6.90;99.90;;;;;;2057314;28;20026;-79
2021/03/10 03:29:04;;;;;;;45.28;31.88;;;7.00;99.90;;;;;;2057797;28;20062;-78
2021/03/10 03:30:06;;;;;;;49.30;32.55;;;6.90;99.90;;;;;;2066006;28;20033;-79
2021/03/10 03:31:07;;;;;;;46.65;31.60;;;6.90;99.90;;;;;;2065719;28;20038;-80
2021/03/10 03:32:07;;;;;;;49.45;32.38;;;6.90;99.90;;;;;;2057655;28;20031;-79
2021/03/10 03:33:23;;;;;;;46.72;31.25;;;6.90;99.90;;;;;;2062271;28;20034;-81
2021/03/10 03:34:24;;;;;;;43.05;30.92;;;7.00;99.90;;;;;;2068679;28;20036;-82
2021/03/10 03:35:26;;;;;;;41.08;30.10;;;6.90;99.90;;;;;;2067645;28;20468;-81
2021/03/10 03:36:27;;;;;;;35.67;26.02;;;7.00;99.90;;;;;;2054884;28;20405;-81
2021/03/10 03:37:27;;;;;;;37.45;25.58;;;6.90;99.90;;;;;;2059313;28;20034;-80
2021/03/10 03:38:30;;;;;;;36.17;25.98;;;6.90;99.90;;;;;;2059654;28;20030;-80
2021/03/10 03:39:30;;;;;;;45.85;29.67;;;6.90;99.90;;;;;;2061164;28;20081;-79
2021/03/10 03:40:32;;;;;;;39.78;28.05;;;7.00;99.90;;;;;;2056783;28;20188;-79
2021/03/10 03:41:33;;;;;;;36.67;25.52;;;6.90;99.90;;;;;;2057668;28;20034;-80
2021/03/10 03:42:34;;;;;;;41.70;29.85;;;6.90;99.90;;;;;;2058059;28;20023;-79
2021/03/10 03:43:34;;;;;;;39.72;30.17;;;7.00;99.90;;;;;;2067100;28;20053;-78
2021/03/10 03:44:35;;;;;;;41.38;30.40;;;7.00;99.90;;;;;;2055579;28;20109;-78
2021/03/10 03:45:36;;;;;;;45.05;30.73;;;6.90;99.90;;;;;;2051379;29;20031;-78
2021/03/10 03:46:37;;;;;;;53.10;32.20;;;7.00;99.90;;;;;;2053862;28;20553;-79
2021/03/10 03:47:39;;;;;;;36.85;27.15;;;6.90;99.90;;;;;;2060306;28;20540;-79
2021/03/10 03:48:39;;;;;;;44.75;30.45;;;6.90;99.90;;;;;;2059966;28;20031;-78
2021/03/10 03:49:46;;;;;;;44.08;30.17;;;6.90;99.90;;;;;;2061172;28;20046;-78
2021/03/10 03:50:47;;;;;;;40.25;29.38;;;6.90;99.90;;;;;;2060034;28;20160;-78
2021/03/10 03:51:48;;;;;;;46.85;30.55;;;6.90;99.90;;;;;;2061091;28;20023;-79
2021/03/10 03:52:49;;;;;;;43.97;30.08;;;6.90;99.90;;;;;;2052803;29;20023;-78
2021/03/10 03:53:56;;;;;;;40.83;30.60;;;6.90;99.90;;;;;;2059067;28;20035;-79
2021/03/10 03:54:57;;;;;;;40.53;29.00;;;6.90;99.90;;;;;;2061905;28;20031;-79
2021/03/10 03:55:58;;;;;;;39.92;27.83;;;6.90;99.90;;;;;;2060205;28;20027;-78
2021/03/10 03:56:59;;;;;;;38.50;27.77;;;6.80;99.90;;;;;;2064805;28;20516;-80
2021/03/10 03:58:00;;;;;;;41.53;27.50;;;6.80;99.90;;;;;;2057312;28;20023;-81
2021/03/10 03:59:00;;;;;;;37.85;26.55;;;6.90;99.90;;;;;;2057719;28;20039;-80
2021/03/10 04:00:03;;;;;;;35.33;26.05;;;6.90;99.90;;;;;;2061702;28;20057;-78
2021/03/10 04:01:03;;;;;;;37.25;27.25;;;6.90;99.90;;;;;;2057824;28;20031;-80
2021/03/10 04:02:04;;;;;;;39.70;28.42;;;6.80;99.90;;;;;;2058753;28;20023;-83
2021/03/10 04:03:05;;;;;;;40.22;27.95;;;6.90;99.90;;;;;;2068125;28;20030;-80
2021/03/10 04:04:06;;;;;;;36.78;26.75;;;6.80;99.90;;;;;;2060339;28;20025;-80
2021/03/10 04:05:07;;;;;;;41.47;30.15;;;6.80;99.90;;;;;;2061711;28;20053;-82
2021/03/10 04:06:08;;;;;;;30.00;23.52;;;6.80;99.90;;;;;;2060094;28;20488;-79
2021/03/10 04:07:09;;;;;;;35.28;25.45;;;6.80;99.90;;;;;;2068317;28;20026;-80
2021/03/10 04:08:10;;;;;;;31.45;24.15;;;6.80;99.90;;;;;;2060804;28;20043;-82
2021/03/10 04:09:10;;;;;;;38.67;25.75;;;6.80;99.90;;;;;;2060028;28;20478;-81
2021/03/10 04:10:11;;;;;;;40.67;28.38;;;6.80;99.90;;;;;;2060265;28;20066;-83
2021/03/10 04:11:13;;;;;;;33.50;25.23;;;6.80;99.90;;;;;;2067095;28;20123;-80
2021/03/10 04:12:14;;;;;;;37.22;27.27;;;6.80;99.90;;;;;;2067018;28;20026;-81
2021/03/10 04:13:14;;;;;;;37.45;25.90;;;6.70;99.90;;;;;;2061160;28;20065;-80
2021/03/10 04:14:16;;;;;;;31.45;22.00;;;6.70;99.90;;;;;;2066040;28;20034;-81
2021/03/10 04:15:17;;;;;;;37.22;27.15;;;6.70;99.90;;;;;;2060448;28;20050;-79
2021/03/10 04:16:18;;;;;;;38.25;27.60;;;6.70;99.90;;;;;;2067020;28;20026;-80
2021/03/10 04:17:19;;;;;;;33.90;23.77;;;6.70;99.90;;;;;;2059103;28;20034;-82
2021/03/10 04:18:20;;;;;;;31.85;24.38;;;6.70;99.90;;;;;;2061354;28;20031;-82
2021/03/10 04:19:21;;;;;;;28.38;21.42;;;6.70;99.90;;;;;;2061109;28;20057;-79
2021/03/10 04:20:22;;;;;;;36.92;25.08;;;6.60;99.90;;;;;;2067984;28;20026;-83
2021/03/10 04:21:23;;;;;;;29.85;23.17;;;6.60;99.90;;;;;;2062845;28;20019;-82
2021/03/10 04:22:24;;;;;;;32.33;25.50;;;6.60;99.90;;;;;;2061385;28;20086;-83
2021/03/10 04:23:25;;;;;;;37.70;27.00;;;6.60;99.90;;;;;;2070687;28;20026;-81
2021/03/10 04:24:25;;;;;;;34.35;26.42;;;6.60;99.90;;;;;;2059446;28;20030;-80
2021/03/10 04:25:26;;;;;;;38.10;27.55;;;6.60;99.90;;;;;;2048558;28;20039;-81
2021/03/10 04:26:27;;;;;;;34.17;25.25;;;6.60;99.90;;;;;;2055644;28;20031;-81
2021/03/10 04:27:27;;;;;;;40.28;28.33;;;6.50;99.90;;;;;;2064353;28;20109;-81
2021/03/10 04:28:28;;;;;;;28.75;22.38;;;6.50;99.90;;;;;;2064153;28;20077;-80
2021/03/10 04:29:29;;;;;;;32.05;23.90;;;6.50;99.90;;;;;;2064366;28;20022;-80
2021/03/10 04:30:30;;;;;;;28.98;20.90;;;6.50;99.90;;;;;;2055941;28;20031;-80
2021/03/10 04:31:30;;;;;;;29.35;20.88;;;6.50;99.90;;;;;;2055787;28;20030;-80
2021/03/10 04:32:31;;;;;;;34.97;22.15;;;6.50;99.90;;;;;;2055756;28;20030;-80
2021/03/10 04:33:32;;;;;;;29.15;20.73;;;6.40;99.90;;;;;;2052285;28;20378;-79
2021/03/10 04:34:33;;;;;;;37.65;26.30;;;6.40;99.90;;;;;;2056535;28;20113;-81
2021/03/10 04:35:33;;;;;;;31.73;23.58;;;6.40;99.90;;;;;;2056160;28;20015;-80
2021/03/10 04:36:36;;;;;;;35.30;25.40;;;6.40;99.90;;;;;;2058366;28;20027;-79
2021/03/10 04:37:40;;;;;;;32.60;22.10;;;6.40;99.90;;;;;;2063081;28;20039;-79
2021/03/10 04:38:41;;;;;;;34.05;26.55;;;6.40;99.90;;;;;;2063115;28;20023;-79
2021/03/10 04:39:41;;;;;;;31.45;22.52;;;6.40;99.90;;;;;;2062930;28;20101;-79
2021/03/10 04:40:42;;;;;;;36.97;26.77;;;6.30;99.90;;;;;;2063022;28;20040;-80
2021/03/10 04:41:43;;;;;;;38.60;28.50;;;6.30;99.90;;;;;;2062872;28;20023;-79
2021/03/10 04:42:44;;;;;;;37.50;28.80;;;6.30;99.90;;;;;;2062766;28;20094;-79
2021/03/10 04:43:45;;;;;;;37.78;27.58;;;6.30;99.90;;;;;;2062348;28;20095;-79
2021/03/10 04:44:46;;;;;;;39.03;28.73;;;6.30;99.90;;;;;;2069944;28;20026;-80
2021/03/10 04:45:46;;;;;;;36.00;25.17;;;6.30;99.90;;;;;;2062436;28;20058;-80
2021/03/10 04:46:47;;;;;;;32.13;24.05;;;6.30;99.90;;;;;;2067371;28;20034;-79
2021/03/10 04:47:48;;;;;;;33.72;25.48;;;6.30;99.90;;;;;;2062057;28;20027;-79
2021/03/10 04:48:49;;;;;;;34.85;25.63;;;6.30;99.90;;;;;;2062214;28;20030;-79
2021/03/10 04:49:49;;;;;;;41.38;27.55;;;6.30;99.90;;;;;;2062364;28;20050;-80
2021/03/10 04:50:50;;;;;;;37.67;28.60;;;6.30;99.90;;;;;;2062144;28;20027;-80
2021/03/10 04:51:51;;;;;;;36.90;27.35;;;6.30;99.90;;;;;;2062431;28;20054;-79
2021/03/10 04:52:52;;;;;;;39.13;28.20;;;6.30;99.90;;;;;;2070393;28;20050;-78
2021/03/10 04:53:52;;;;;;;37.40;29.40;;;6.30;99.90;;;;;;2070379;28;20098;-78
2021/03/10 04:54:53;;;;;;;39.95;28.20;;;6.20;99.90;;;;;;2061911;28;20050;-79
2021/03/10 04:55:53;;;;;;;40.00;29.63;;;6.20;99.90;;;;;;2061973;28;20109;-80
2021/03/10 04:56:54;;;;;;;38.42;28.70;;;6.30;99.90;;;;;;2062413;28;20038;-79
2021/03/10 04:57:55;;;;;;;34.60;25.33;;;6.30;99.90;;;;;;2062158;28;20081;-79
2021/03/10 04:58:56;;;;;;;32.13;23.27;;;6.20;99.90;;;;;;2070652;28;20054;-78
2021/03/10 04:59:56;;;;;;;27.35;21.55;;;6.20;99.90;;;;;;2070665;28;20106;-79
2021/03/10 05:00:57;;;;;;;23.70;19.17;;;6.20;99.90;;;;;;2070764;28;20026;-79
2021/03/10 05:01:58;;;;;;;29.70;25.40;;;6.20;99.90;;;;;;2062499;28;20030;-80
2021/03/10 05:02:58;;;;;;;31.75;23.70;;;6.20;99.90;;;;;;2062315;28;20027;-80
2021/03/10 05:03:59;;;;;;;35.30;27.30;;;6.30;99.90;;;;;;2062362;28;20078;-80
2021/03/10 05:05:00;;;;;;;34.90;27.42;;;6.20;99.90;;;;;;2062506;28;20516;-79
2021/03/10 05:06:01;;;;;;;34.13;26.10;;;6.20;99.90;;;;;;2062580;28;20043;-79
2021/03/10 05:07:02;;;;;;;31.67;23.92;;;6.20;99.90;;;;;;2062290;28;20035;-80
2021/03/10 05:08:03;;;;;;;26.73;21.90;;;6.20;99.90;;;;;;2062412;28;20059;-79
2021/03/10 05:09:07;;;;;;;30.63;23.77;;;6.20;99.90;;;;;;2062366;28;20031;-79
2021/03/10 05:10:09;;;;;;;33.03;24.15;;;6.20;99.90;;;;;;2055117;28;20034;-80
2021/03/10 05:11:10;;;;;;;34.15;26.25;;;6.20;99.90;;;;;;2066234;28;20049;-80
2021/03/10 05:12:10;;;;;;;37.45;28.45;;;6.20;99.90;;;;;;2071734;28;20050;-79
2021/03/10 05:13:11;;;;;;;38.30;27.70;;;6.20;99.90;;;;;;2070278;28;20140;-79
2021/03/10 05:14:12;;;;;;;35.60;29.40;;;6.20;99.90;;;;;;2062696;28;20037;-80
2021/03/10 05:15:12;;;;;;;30.40;24.45;;;6.20;99.90;;;;;;2062116;28;20031;-79
2021/03/10 05:16:14;;;;;;;30.45;23.13;;;6.10;99.90;;;;;;2063353;28;20089;-79
2021/03/10 05:17:14;;;;;;;33.25;25.55;;;6.10;99.90;;;;;;2071803;28;20045;-80
2021/03/10 05:18:15;;;;;;;25.17;19.88;;;6.10;99.90;;;;;;2072122;28;20015;-79
2021/03/10 05:19:16;;;;;;;31.48;24.75;;;6.10;99.90;;;;;;2071996;28;20272;-79
2021/03/10 05:20:16;;;;;;;34.15;26.65;;;6.10;99.90;;;;;;2072361;28;20062;-81
2021/03/10 05:21:17;;;;;;;34.90;26.40;;;6.10;99.90;;;;;;2072103;28;20022;-80